Time;durP1;ratioP1;P1;durP2;ratioP2;P2;SDS_P1;SDS_P2;PMS_P1;PMS_P2;Temp;Humidity;BMP_temperature;BMP_pressure;BME280_temperature;BME280_humidity;BME280_pressure;Samples;Min_cycle;Max_cycle;Signal;HPM_P1;HPM_P2
2021/12/14 00:00:43;;;;;;;40.53;19.52;;;;;;;0.31;100.00;101842.38;5034101;28;20049;-79
2021/12/14 00:03:12;;;;;;;32.38;19.02;;;;;;;0.25;100.00;101839.38;5033711;28;20053;-78
2021/12/14 00:05:42;;;;;;;35.92;18.20;;;;;;;0.32;100.00;101849.44;5033551;28;20041;-78
2021/12/14 00:08:13;;;;;;;33.33;18.00;;;;;;;0.32;100.00;101844.88;5034203;28;20053;-79
2021/12/14 00:11:11;;;;;;;38.70;18.70;;;;;;;0.30;100.00;101851.47;5033949;28;20053;-78
2021/12/14 00:16:09;;;;;;;33.50;18.17;;;;;;;0.35;100.00;101849.09;5031261;28;20046;-79
2021/12/14 00:18:39;;;;;;;31.25;17.40;;;;;;;0.22;100.00;101834.38;5033890;28;20133;-79
2021/12/14 00:21:30;;;;;;;35.22;18.85;;;;;;;0.16;100.00;101851.25;5033720;28;20053;-79
2021/12/14 00:24:06;;;;;;;34.78;18.10;;;;;;;0.09;100.00;101855.63;5033828;28;20046;-79
2021/12/14 00:26:42;;;;;;;40.83;18.80;;;;;;;0.08;100.00;101864.72;5033879;28;20385;-78
2021/12/14 00:29:18;;;;;;;33.33;18.08;;;;;;;0.04;100.00;101860.75;5033686;28;20373;-79
2021/12/14 00:31:47;;;;;;;36.40;18.13;;;;;;;-0.07;100.00;101852.06;5019686;28;20404;-78
2021/12/14 00:34:23;;;;;;;36.28;18.25;;;;;;;-0.06;100.00;101850.19;5033625;28;20041;-78
2021/12/14 00:36:52;;;;;;;34.28;16.73;;;;;;;-0.11;100.00;101849.91;5033386;28;20045;-79
2021/12/14 00:39:20;;;;;;;34.03;17.27;;;;;;;0.02;100.00;101860.91;5033541;28;20045;-78
2021/12/14 00:41:48;;;;;;;34.40;16.83;;;;;;;0.02;100.00;101847.44;5033269;28;20045;-78
2021/12/14 00:44:16;;;;;;;29.20;17.02;;;;;;;0.29;98.98;101850.63;5033497;28;20052;-79
2021/12/14 00:46:44;;;;;;;30.58;17.17;;;;;;;0.27;98.83;101849.97;5032034;28;20053;-78
2021/12/14 00:49:14;;;;;;;34.92;17.20;;;;;;;0.23;99.89;101856.72;5027700;28;20073;-78
2021/12/14 00:51:42;;;;;;;37.55;17.52;;;;;;;0.14;100.00;101858.63;5025364;28;20057;-78
2021/12/14 00:54:14;;;;;;;40.20;17.80;;;;;;;0.08;100.00;101862.03;5033137;28;20507;-78
2021/12/14 00:56:47;;;;;;;29.52;17.42;;;;;;;0.11;100.00;101867.09;5033278;28;20049;-79
2021/12/14 00:59:19;;;;;;;29.70;16.90;;;;;;;0.01;100.00;101858.38;5032013;28;20033;-78
2021/12/14 01:01:58;;;;;;;37.60;17.75;;;;;;;0.08;100.00;101865.59;5065195;28;20072;-79
2021/12/14 01:04:41;;;;;;;33.13;16.63;;;;;;;0.01;100.00;101858.38;5031897;28;20037;-78
2021/12/14 01:07:12;;;;;;;36.03;16.20;;;;;;;-0.11;100.00;101845.34;5033090;28;20049;-78
2021/12/14 01:09:45;;;;;;;30.23;16.52;;;;;;;-0.09;100.00;101851.41;5031663;28;20037;-79
2021/12/14 01:12:23;;;;;;;32.45;17.10;;;;;;;-0.12;100.00;101842.81;5033034;28;20480;-78
2021/12/14 01:15:11;;;;;;;35.58;17.52;;;;;;;-0.06;100.00;101839.41;5032696;28;20045;-79
2021/12/14 01:17:54;;;;;;;29.50;16.27;;;;;;;-0.06;100.00;101842.94;5031716;28;20400;-78
2021/12/14 01:20:30;;;;;;;31.83;15.77;;;;;;;-0.08;100.00;101846.84;5031704;28;20037;-78
2021/12/14 01:23:02;;;;;;;29.35;16.00;;;;;;;-0.10;100.00;101840.81;5015246;28;20397;-78
2021/12/14 01:25:35;;;;;;;32.78;16.25;;;;;;;-0.11;100.00;101850.72;5032864;28;20050;-78
2021/12/14 01:28:07;;;;;;;31.15;15.35;;;;;;;-0.08;100.00;101830.69;5031491;28;20045;-78
2021/12/14 01:31:03;;;;;;;30.90;15.68;;;;;;;-0.10;100.00;101841.63;5031588;28;20045;-78
2021/12/14 01:33:32;;;;;;;27.67;14.38;;;;;;;-0.10;100.00;101835.41;5031600;28;20056;-78
2021/12/14 01:36:08;;;;;;;28.25;14.35;;;;;;;-0.03;100.00;101837.22;5033017;28;20069;-78
2021/12/14 01:38:48;;;;;;;27.80;14.35;;;;;;;0.28;99.08;101838.19;5033430;28;20049;-78
2021/12/14 01:41:17;;;;;;;25.30;15.13;;;;;;;0.22;99.96;101834.38;5031305;28;20512;-78
2021/12/14 01:43:55;;;;;;;28.52;15.02;;;;;;;0.12;100.00;101839.16;5032309;28;20396;-78
2021/12/14 01:46:32;;;;;;;26.52;14.65;;;;;;;0.07;100.00;101841.53;5064021;28;20054;-78
2021/12/14 01:49:15;;;;;;;26.20;14.57;;;;;;;-0.02;100.00;101841.59;5031055;28;20045;-78
2021/12/14 01:52:18;;;;;;;32.40;15.60;;;;;;;-0.01;100.00;101851.34;5029900;28;20050;-78
2021/12/14 01:54:51;;;;;;;26.63;14.68;;;;;;;-0.16;100.00;101845.88;5031183;28;20044;-78
2021/12/14 01:57:22;;;;;;;24.60;14.48;;;;;;;-0.28;100.00;101841.91;5032107;28;20048;-78
2021/12/14 01:59:56;;;;;;;31.23;14.88;;;;;;;-0.36;100.00;101834.72;5031245;28;20051;-78
2021/12/14 02:02:41;;;;;;;29.98;15.63;;;;;;;-0.35;100.00;101851.69;5030837;28;20045;-78
2021/12/14 02:05:33;;;;;;;32.53;13.85;;;;;;;-0.42;100.00;101848.88;5031043;28;20048;-78
2021/12/14 02:08:12;;;;;;;26.45;15.10;;;;;;;-0.44;100.00;101840.97;5032097;28;20056;-78
2021/12/14 02:10:42;;;;;;;25.15;13.93;;;;;;;-0.47;100.00;101835.09;5030827;28;20396;-78
2021/12/14 02:13:10;;;;;;;28.80;14.13;;;;;;;-0.44;100.00;101840.13;5030977;28;20396;-78
2021/12/14 02:15:42;;;;;;;26.58;14.25;;;;;;;-0.19;100.00;101832.75;5030847;28;20068;-78
2021/12/14 02:18:20;;;;;;;26.45;14.13;;;;;;;0.03;100.00;101848.28;5030866;28;20480;-78
2021/12/14 02:20:54;;;;;;;28.00;14.50;;;;;;;0.12;100.00;101844.53;5032028;28;20401;-78
2021/12/14 02:23:22;;;;;;;29.55;14.18;;;;;;;0.04;100.00;101833.81;5031991;28;20060;-78
2021/12/14 02:25:52;;;;;;;27.50;14.43;;;;;;;-0.06;100.00;101834.88;5032159;28;20384;-78
2021/12/14 02:28:22;;;;;;;25.27;13.60;;;;;;;-0.20;100.00;101828.41;5034761;28;20041;-78
2021/12/14 02:30:55;;;;;;;23.60;13.10;;;;;;;-0.28;100.00;101836.53;5034527;28;20068;-78
2021/12/14 02:33:32;;;;;;;25.98;13.63;;;;;;;-0.12;100.00;101838.28;5035931;28;20484;-78
2021/12/14 02:36:05;;;;;;;29.88;13.18;;;;;;;-0.18;100.00;101825.53;5050914;28;20057;-78
2021/12/14 02:38:33;;;;;;;26.05;13.63;;;;;;;-0.28;100.00;101823.06;5035733;28;20037;-78
2021/12/14 02:41:05;;;;;;;25.13;12.60;;;;;;;-0.37;100.00;101827.66;5034608;28;20587;-78
2021/12/14 02:43:56;;;;;;;23.98;13.15;;;;;;;-0.43;100.00;101822.97;5067401;28;20057;-78
2021/12/14 02:46:36;;;;;;;28.20;14.23;;;;;;;-0.46;100.00;101815.25;5034385;28;20056;-78
2021/12/14 02:49:10;;;;;;;29.52;14.93;;;;;;;-0.48;100.00;101817.28;5030203;28;20053;-78
2021/12/14 02:51:42;;;;;;;23.58;13.23;;;;;;;-0.44;100.00;101830.19;5027342;28;20050;-78
2021/12/14 02:54:17;;;;;;;26.48;14.82;;;;;;;-0.17;100.00;101835.28;5018231;28;20223;-78
2021/12/14 02:56:56;;;;;;;24.58;13.40;;;;;;;-0.27;100.00;101830.13;5034470;28;20073;-78
2021/12/14 02:59:30;;;;;;;25.50;12.95;;;;;;;-0.26;100.00;101829.09;5035409;28;20594;-78
2021/12/14 03:02:03;;;;;;;;;;;;;;;-0.29;100.00;101829.47;5034909;28;20488;-78
2021/12/14 03:04:40;;;;;;;25.42;13.30;;;;;;;-0.39;100.00;101832.34;5035293;28;19921;-78
2021/12/14 03:07:09;;;;;;;25.35;13.35;;;;;;;-0.43;100.00;101831.06;5034234;28;20046;-78
2021/12/14 03:09:56;;;;;;;32.08;13.90;;;;;;;-0.52;100.00;101826.72;5021277;28;20053;-78
2021/12/14 03:12:32;;;;;;;26.55;13.65;;;;;;;-0.45;100.00;101836.59;5067048;28;20050;-78
2021/12/14 03:15:10;;;;;;;27.00;12.48;;;;;;;-0.26;100.00;101837.19;5034023;28;20068;-78
2021/12/14 03:17:42;;;;;;;21.75;11.88;;;;;;;-0.20;100.00;101832.97;5035069;28;20053;-78
2021/12/14 03:20:16;;;;;;;20.92;11.63;;;;;;;-0.26;100.00;101823.72;5035194;28;20053;-78
2021/12/14 03:22:48;;;;;;;25.60;12.60;;;;;;;-0.30;100.00;101811.63;5034904;28;20041;-78
2021/12/14 03:25:18;;;;;;;24.10;12.05;;;;;;;-0.20;100.00;101819.50;5035098;28;20048;-78
2021/12/14 03:27:49;;;;;;;23.27;12.57;;;;;;;-0.14;100.00;101829.56;5034871;28;20048;-78
2021/12/14 03:30:24;;;;;;;23.95;11.98;;;;;;;-0.15;100.00;101825.16;5033724;28;20052;-78
2021/12/14 03:32:55;;;;;;;21.33;10.15;;;;;;;-0.32;100.00;101827.97;5034802;28;20060;-78
2021/12/14 03:35:41;;;;;;;21.52;11.60;;;;;;;-0.16;100.00;101836.94;5034865;28;20044;-78
2021/12/14 03:38:22;;;;;;;24.40;11.18;;;;;;;-0.32;100.00;101833.34;5034563;28;20041;-78
2021/12/14 03:41:00;;;;;;;20.67;11.25;;;;;;;-0.32;100.00;101835.19;5033630;28;20049;-78
2021/12/14 03:43:29;;;;;;;23.27;10.98;;;;;;;-0.35;100.00;101843.63;5033430;28;20057;-79
2021/12/14 03:45:57;;;;;;;18.27;10.38;;;;;;;-0.33;100.00;101839.75;5034474;28;20133;-78
2021/12/14 03:48:28;;;;;;;23.52;11.98;;;;;;;-0.34;100.00;101838.06;5033308;28;20488;-79
2021/12/14 03:50:57;;;;;;;30.88;11.38;;;;;;;-0.46;100.00;101831.38;5033455;28;20054;-78
2021/12/14 03:53:26;;;;;;;20.15;11.65;;;;;;;-0.53;100.00;101815.13;5033432;28;20399;-79
2021/12/14 03:56:01;;;;;;;22.17;11.38;;;;;;;-0.57;100.00;101819.19;5066360;28;20061;-79
2021/12/14 03:58:35;;;;;;;23.25;11.55;;;;;;;-0.40;100.00;101806.47;5033343;28;20041;-79
2021/12/14 04:01:36;;;;;;;20.58;12.13;;;;;;;-0.41;100.00;101816.41;5066381;28;20502;-78
2021/12/14 04:04:19;;;;;;;22.05;11.95;;;;;;;-0.42;100.00;101819.28;5066261;28;20049;-79
2021/12/14 04:06:51;;;;;;;20.92;12.43;;;;;;;-0.46;100.00;101823.31;5066347;28;20045;-79
2021/12/14 04:09:23;;;;;;;22.58;11.65;;;;;;;-0.44;100.00;101837.44;5033012;28;20045;-78
2021/12/14 04:11:52;;;;;;;18.60;11.45;;;;;;;-0.36;100.00;101831.16;5066281;28;20842;-79
2021/12/14 04:14:21;;;;;;;25.25;11.38;;;;;;;-0.44;100.00;101807.88;5032909;28;20057;-79
2021/12/14 04:16:51;;;;;;;20.50;11.73;;;;;;;-0.42;100.00;101817.44;5032816;28;20042;-79
2021/12/14 04:19:23;;;;;;;25.02;12.75;;;;;;;-0.26;100.00;101820.22;5066066;28;20484;-79
2021/12/14 04:21:58;;;;;;;23.58;10.90;;;;;;;-0.29;100.00;101822.22;5032893;28;20046;-79
2021/12/14 04:24:31;;;;;;;21.95;11.27;;;;;;;-0.39;100.00;101810.03;5016181;28;20049;-77
2021/12/14 04:27:01;;;;;;;23.60;12.40;;;;;;;-0.26;100.00;101825.59;5032849;28;20412;-77
2021/12/14 04:29:31;;;;;;;24.70;12.85;;;;;;;-0.23;100.00;101820.69;5032692;28;20041;-78
2021/12/14 04:32:05;;;;;;;22.58;12.05;;;;;;;-0.25;100.00;101830.78;5032648;28;20056;-77
2021/12/14 04:34:33;;;;;;;21.83;12.07;;;;;;;-0.43;100.00;101818.44;5032499;28;20049;-77
2021/12/14 04:37:04;;;;;;;24.05;11.40;;;;;;;-0.53;100.00;101814.28;5032440;28;20408;-77
2021/12/14 04:39:42;;;;;;;22.67;11.73;;;;;;;-0.48;100.00;101828.91;5032597;28;20042;-77
2021/12/14 04:51:57;;;;;;;21.60;11.38;;;;;;;-0.49;100.00;101848.72;5032012;28;20056;-77
2021/12/14 04:54:01;;;;;;;20.90;10.40;;;;;;;-0.37;100.00;101833.03;5033325;28;20384;-78
2021/12/14 04:56:33;;;;;;;23.00;11.63;;;;;;;-0.50;100.00;101844.34;5033363;28;20056;-77
2021/12/14 04:59:16;;;;;;;22.65;10.95;;;;;;;-0.46;100.00;101837.63;5033189;28;20508;-77
2021/12/14 05:01:47;;;;;;;23.83;11.57;;;;;;;-0.60;100.00;101841.03;5032182;28;20048;-78
2021/12/14 05:04:29;;;;;;;20.08;11.00;;;;;;;-0.71;100.00;101850.31;5031954;28;20056;-78
2021/12/14 05:07:15;;;;;;;21.40;11.80;;;;;;;-0.74;100.00;101846.13;5015711;28;20064;-78
2021/12/14 05:09:43;;;;;;;20.02;10.30;;;;;;;-0.77;100.00;101843.78;5034848;28;20037;-78
2021/12/14 05:12:19;;;;;;;22.85;11.20;;;;;;;-0.69;100.00;101854.50;5012312;28;20057;-78
2021/12/14 05:15:12;;;;;;;23.10;11.10;;;;;;;-0.47;100.00;101856.63;5054063;28;20052;-78
2021/12/14 05:17:46;;;;;;;24.65;12.00;;;;;;;-0.43;100.00;101849.88;5031663;28;20045;-78
2021/12/14 05:20:17;;;;;;;25.58;11.70;;;;;;;-0.46;100.00;101851.06;5031699;28;20496;-78
2021/12/14 05:22:47;;;;;;;20.05;10.88;;;;;;;-0.46;100.00;101860.97;5032714;28;20041;-77
2021/12/14 05:25:21;;;;;;;22.00;10.48;;;;;;;-0.47;100.00;101856.63;5031782;28;20509;-77
2021/12/14 05:27:57;;;;;;;19.90;10.52;;;;;;;-0.56;100.00;101851.28;5029910;28;20052;-78
2021/12/14 05:30:37;;;;;;;23.83;11.80;;;;;;;-0.57;100.00;101876.50;5020517;28;20068;-78
2021/12/14 05:33:18;;;;;;;23.52;12.38;;;;;;;-0.72;100.00;101872.84;5031301;28;20052;-78
2021/12/14 05:35:50;;;;;;;25.52;11.43;;;;;;;-0.66;100.00;101884.75;5031475;28;20056;-77
2021/12/14 05:38:28;;;;;;;22.13;12.35;;;;;;;-0.53;100.00;101887.75;5000923;28;20053;-78
2021/12/14 05:44:05;;;;;;;21.13;11.25;;;;;;;-0.60;100.00;101887.59;5007544;28;20042;-78
2021/12/14 05:46:50;;;;;;;28.80;12.55;;;;;;;-0.42;100.00;101891.91;5031061;28;20050;-78
2021/12/14 05:49:44;;;;;;;25.25;12.77;;;;;;;-0.53;100.00;101901.19;5020774;28;20408;-78
2021/12/14 05:52:16;;;;;;;25.63;14.68;;;;;;;-0.53;100.00;101903.03;5027055;28;20037;-78
2021/12/14 05:54:46;;;;;;;22.70;13.18;;;;;;;-0.70;100.00;101889.63;5032425;28;20045;-78
2021/12/14 05:57:18;;;;;;;29.10;13.02;;;;;;;-0.79;100.00;101893.38;5030882;28;20045;-78
2021/12/14 05:59:46;;;;;;;32.20;13.80;;;;;;;-0.74;100.00;101897.19;5031185;28;20041;-79
2021/12/14 06:02:15;;;;;;;24.50;13.82;;;;;;;-0.76;100.00;101883.09;5027833;28;20404;-77
2021/12/14 06:04:51;;;;;;;26.40;13.57;;;;;;;-0.75;100.00;101890.16;5028028;28;20042;-78
2021/12/14 06:07:20;;;;;;;25.55;13.52;;;;;;;-0.84;100.00;101894.72;5057668;28;20459;-78
2021/12/14 06:09:51;;;;;;;24.17;12.50;;;;;;;-0.63;100.00;101895.97;5019966;28;20061;-77
2021/12/14 06:12:35;;;;;;;26.40;13.40;;;;;;;-0.64;100.00;101896.19;5026822;28;20048;-77
2021/12/14 06:15:10;;;;;;;23.85;12.98;;;;;;;-0.56;100.00;101898.84;5022109;28;20045;-79
2021/12/14 06:17:40;;;;;;;22.70;12.52;;;;;;;-0.65;100.00;101894.50;5019307;28;20388;-77
2021/12/14 06:20:25;;;;;;;20.90;11.35;;;;;;;-0.84;100.00;101902.78;5018711;28;20057;-79
2021/12/14 06:22:58;;;;;;;24.35;12.15;;;;;;;-0.56;100.00;101897.00;5026199;28;20424;-80
2021/12/14 06:25:46;;;;;;;30.88;12.65;;;;;;;-0.75;100.00;101890.16;5023737;28;20062;-79
2021/12/14 06:28:26;;;;;;;25.00;11.60;;;;;;;-0.86;100.00;101896.75;5017505;28;20049;-79
2021/12/14 06:30:56;;;;;;;21.88;11.32;;;;;;;-0.97;100.00;101900.59;5022881;28;20052;-80
2021/12/14 06:33:31;;;;;;;28.85;12.43;;;;;;;-1.05;100.00;101884.50;5020893;28;20053;-79
2021/12/14 06:36:01;;;;;;;24.85;12.55;;;;;;;-1.08;100.00;101891.03;5025051;28;20049;-79
2021/12/14 06:38:34;;;;;;;27.10;14.18;;;;;;;-0.76;100.00;101893.84;5019393;28;20046;-79
2021/12/14 06:41:16;;;;;;;35.08;13.70;;;;;;;-0.88;100.00;101898.72;5046057;28;20065;-82
2021/12/14 06:43:58;;;;;;;25.10;13.30;;;;;;;-0.96;100.00;101896.94;5029769;28;20037;-80
2021/12/14 06:46:33;;;;;;;20.35;12.27;;;;;;;-0.56;100.00;101901.53;4992795;28;20053;-78
2021/12/14 06:49:12;;;;;;;24.92;13.98;;;;;;;-0.63;100.00;101909.44;5017374;28;20057;-78
2021/12/14 06:51:48;;;;;;;28.48;13.18;;;;;;;-0.70;100.00;101916.50;5030398;28;20412;-78
2021/12/14 06:54:31;;;;;;;24.05;12.27;;;;;;;-0.71;100.00;101909.47;5030257;28;20038;-78
2021/12/14 06:57:02;;;;;;;23.98;12.98;;;;;;;-0.88;100.00;101908.66;5031422;28;20503;-78
2021/12/14 07:00:00;;;;;;;22.83;12.73;;;;;;;-1.00;100.00;101905.47;5031066;28;20072;-78
2021/12/14 07:02:37;;;;;;;25.08;12.57;;;;;;;-1.08;100.00;101909.00;5030050;28;20034;-78
2021/12/14 07:05:20;;;;;;;32.70;15.15;;;;;;;-1.10;100.00;101900.28;5030108;28;20432;-78
2021/12/14 07:07:52;;;;;;;29.73;13.60;;;;;;;-1.12;100.00;101897.75;5063166;28;20076;-78
2021/12/14 07:10:20;;;;;;;23.98;12.77;;;;;;;-1.13;100.00;101893.41;5018855;28;20046;-78
2021/12/14 07:12:48;;;;;;;25.25;13.15;;;;;;;-1.04;100.00;101896.91;5029169;28;20056;-78
2021/12/14 07:15:24;;;;;;;25.08;13.48;;;;;;;-0.96;100.00;101904.13;5033808;28;20041;-78
2021/12/14 07:18:03;;;;;;;23.60;12.68;;;;;;;-0.87;100.00;101891.53;5034956;28;20042;-78
2021/12/14 07:20:39;;;;;;;25.95;12.77;;;;;;;-0.65;100.00;101898.00;5034908;28;20048;-78
2021/12/14 07:23:30;;;;;;;25.95;13.50;;;;;;;-0.49;100.00;101896.31;5034682;28;20057;-78
2021/12/14 07:26:11;;;;;;;27.45;14.00;;;;;;;-0.41;100.00;101904.31;5034757;28;20408;-78
2021/12/14 07:28:42;;;;;;;30.08;13.05;;;;;;;-0.28;100.00;101893.84;5034729;28;20052;-78
2021/12/14 07:31:17;;;;;;;34.00;14.80;;;;;;;0.00;100.00;101897.94;5034606;28;20041;-78
2021/12/14 07:33:57;;;;;;;34.80;14.93;;;;;;;0.36;100.00;101901.91;5034643;28;20041;-78
2021/12/14 07:36:32;;;;;;;29.52;13.98;;;;;;;0.24;100.00;101894.25;5034349;28;20049;-78
2021/12/14 07:39:05;;;;;;;39.35;15.30;;;;;;;0.40;100.00;101905.94;5034629;28;20037;-78
2021/12/14 07:41:36;;;;;;;30.53;14.07;;;;;;;0.80;99.95;101906.63;5034419;28;20041;-79
2021/12/14 07:44:16;;;;;;;29.55;13.80;;;;;;;0.87;98.19;101917.53;5016770;28;20399;-79
2021/12/14 07:46:51;;;;;;;23.40;13.32;;;;;;;0.96;98.13;101910.19;5034089;28;20427;-79
2021/12/14 07:49:24;;;;;;;29.17;12.55;;;;;;;1.01;98.07;101925.81;5027981;28;20065;-78
2021/12/14 07:52:00;;;;;;;28.10;14.95;;;;;;;1.26;96.54;101942.59;5027705;28;20481;-78
2021/12/14 07:54:33;;;;;;;24.80;13.15;;;;;;;1.18;97.14;101935.44;5034286;28;20064;-79
2021/12/14 07:57:03;;;;;;;29.20;14.82;;;;;;;1.38;95.51;101934.06;5034358;28;20042;-79
2021/12/14 07:59:38;;;;;;;28.33;15.52;;;;;;;1.44;94.16;101934.19;5034154;28;20396;-79
2021/12/14 08:02:12;;;;;;;30.42;15.18;;;;;;;1.46;94.90;101945.63;5034135;28;20060;-79
2021/12/14 08:04:42;;;;;;;;;;;;;;;1.33;94.19;101938.16;5034452;28;20048;-79
2021/12/14 08:07:22;;;;;;;30.15;14.98;;;;;;;1.45;94.48;101945.78;5033963;28;19928;-79
2021/12/14 08:09:52;;;;;;;38.88;19.45;;;;;;;1.47;94.02;101938.38;5034103;28;20044;-79
2021/12/14 08:12:46;;;;;;;32.42;16.02;;;;;;;1.74;94.09;101936.88;5020282;28;20038;-79
2021/12/14 08:15:40;;;;;;;30.95;14.35;;;;;;;1.79;93.57;101941.69;5014576;28;20519;-79
2021/12/14 08:18:16;;;;;;;26.55;13.65;;;;;;;2.20;92.74;101931.41;5021315;28;20041;-79
2021/12/14 08:21:07;;;;;;;28.20;13.02;;;;;;;2.26;91.59;101931.47;5033786;28;20042;-78
2021/12/14 08:23:41;;;;;;;25.35;12.95;;;;;;;2.71;89.29;101932.31;5033745;28;20046;-78
2021/12/14 08:26:22;;;;;;;23.15;12.95;;;;;;;2.78;88.02;101915.13;5031236;28;20053;-78
2021/12/14 08:28:57;;;;;;;18.90;11.20;;;;;;;2.70;86.32;101909.88;5033595;28;20048;-78
2021/12/14 08:31:48;;;;;;;23.38;12.50;;;;;;;2.73;86.76;101909.47;5033408;28;20041;-78
2021/12/14 08:34:27;;;;;;;20.10;10.60;;;;;;;3.22;84.13;101907.78;5033322;28;20056;-79
2021/12/14 08:37:08;;;;;;;22.23;10.07;;;;;;;3.04;84.21;101923.66;5032249;28;20069;-79
2021/12/14 08:39:47;;;;;;;17.83;9.55;;;;;;;3.28;83.70;101930.50;5033309;28;20056;-79
2021/12/14 08:42:22;;;;;;;21.10;10.43;;;;;;;3.61;82.13;101929.03;5033458;28;20078;-79
2021/12/14 08:44:55;;;;;;;16.15;9.18;;;;;;;3.63;81.96;101927.78;5032955;28;20400;-79
2021/12/14 08:47:36;;;;;;;16.35;9.60;;;;;;;3.62;82.09;101925.31;5032038;28;20046;-79
2021/12/14 08:50:09;;;;;;;17.67;9.75;;;;;;;4.06;83.07;101927.78;5020930;28;20045;-79
2021/12/14 08:52:38;;;;;;;17.83;9.55;;;;;;;4.08;80.84;101940.09;5032716;28;20044;-79
2021/12/14 08:55:10;;;;;;;13.93;9.57;;;;;;;4.34;80.54;101938.50;5033208;28;20050;-79
2021/12/14 08:57:40;;;;;;;15.40;9.60;;;;;;;4.49;79.88;101942.94;5032922;28;20042;-79
2021/12/14 09:00:22;;;;;;;16.33;9.95;;;;;;;4.24;79.01;101941.59;5032987;28;20432;-79
2021/12/14 09:02:53;;;;;;;18.35;10.07;;;;;;;4.18;79.89;101931.59;5031801;28;20041;-79
2021/12/14 09:05:29;;;;;;;22.00;10.90;;;;;;;4.42;78.90;101934.78;5032902;28;20049;-79
2021/12/14 09:07:58;;;;;;;17.50;10.40;;;;;;;4.81;77.84;101935.03;5032768;28;20481;-78
2021/12/14 09:10:29;;;;;;;22.77;12.02;;;;;;;5.01;77.41;101929.63;5032826;28;20041;-78
2021/12/14 09:13:01;;;;;;;20.92;11.25;;;;;;;5.11;75.33;101943.63;5064389;28;20400;-78
2021/12/14 09:15:35;;;;;;;25.58;14.45;;;;;;;5.38;75.66;101935.44;5032780;28;20484;-78
2021/12/14 09:18:04;;;;;;;26.15;15.32;;;;;;;5.44;74.61;101941.91;5031489;28;20046;-78
2021/12/14 09:20:39;;;;;;;26.52;15.65;;;;;;;5.17;76.01;101950.06;5032632;28;20400;-78
2021/12/14 09:23:14;;;;;;;25.08;13.48;;;;;;;5.34;75.91;101955.88;5032530;28;20049;-78
2021/12/14 09:25:43;;;;;;;22.90;14.25;;;;;;;5.49;75.83;101952.94;5032606;28;20489;-78
2021/12/14 09:28:11;;;;;;;23.60;12.20;;;;;;;5.73;74.59;101952.50;5063886;28;20049;-78
2021/12/14 09:30:44;;;;;;;18.95;11.20;;;;;;;5.79;74.79;101957.06;5032465;28;20045;-79
2021/12/14 09:33:14;;;;;;;22.65;12.80;;;;;;;5.52;75.20;101951.69;5032426;28;20046;-79
2021/12/14 09:35:43;;;;;;;23.90;12.32;;;;;;;5.75;75.10;101939.50;5032415;28;20104;-79
2021/12/14 09:38:17;;;;;;;22.42;12.02;;;;;;;5.97;74.18;101942.78;5031102;28;20050;-79
2021/12/14 09:40:51;;;;;;;26.17;12.50;;;;;;;6.39;72.03;101945.13;5032360;28;20049;-79
2021/12/14 09:43:21;;;;;;;19.23;12.20;;;;;;;6.60;71.46;101943.09;5030939;28;20049;-78
2021/12/14 09:45:53;;;;;;;21.35;12.55;;;;;;;6.96;70.13;101938.91;5040985;28;20499;-78
2021/12/14 09:48:28;;;;;;;22.15;11.90;;;;;;;7.02;69.71;101945.31;5032104;28;20048;-79
2021/12/14 09:51:05;;;;;;;34.85;13.30;;;;;;;7.55;69.62;101942.31;5018311;28;20045;-78
2021/12/14 09:53:36;;;;;;;24.65;13.45;;;;;;;7.68;67.80;101938.63;5032238;28;20037;-78
2021/12/14 09:56:07;;;;;;;31.33;14.23;;;;;;;7.83;67.11;101935.50;5031933;28;20049;-78
2021/12/14 09:58:40;;;;;;;28.63;13.25;;;;;;;7.88;67.17;101932.94;5031993;28;20064;-78
2021/12/14 10:01:13;;;;;;;20.17;12.38;;;;;;;7.76;68.20;101932.84;5031829;28;20045;-78
2021/12/14 10:03:45;;;;;;;25.52;14.20;;;;;;;7.94;67.42;101937.47;5032109;28;20534;-78
2021/12/14 10:06:18;;;;;;;23.25;12.50;;;;;;;7.70;68.22;101944.66;5031766;28;20622;-78
2021/12/14 10:08:53;;;;;;;18.25;10.95;;;;;;;7.55;67.47;101937.72;5032086;28;20091;-79
2021/12/14 10:11:40;;;;;;;19.25;11.65;;;;;;;7.81;68.43;101933.00;5032421;28;20042;-79
2021/12/14 10:14:10;;;;;;;17.45;11.38;;;;;;;7.65;68.17;101932.56;5031721;28;20045;-79
2021/12/14 10:16:39;;;;;;;19.92;12.27;;;;;;;6.96;69.68;101921.72;5031740;28;20041;-79
2021/12/14 10:19:12;;;;;;;19.13;11.32;;;;;;;6.95;70.81;101909.97;5031990;28;20037;-79
2021/12/14 10:21:47;;;;;;;23.65;12.35;;;;;;;7.19;70.56;101912.91;5031845;28;20042;-79
2021/12/14 10:24:15;;;;;;;;;;;;;;;7.28;69.42;101912.63;5032247;28;20392;-79
2021/12/14 10:26:49;;;;;;;17.13;11.60;;;;;;;7.23;68.45;101905.97;5017935;28;19921;-79
2021/12/14 10:29:18;;;;;;;24.00;12.77;;;;;;;7.75;67.48;101912.13;5031658;28;20072;-79
2021/12/14 10:31:58;;;;;;;24.65;13.10;;;;;;;7.83;67.60;101910.97;5030376;28;20049;-79
2021/12/14 10:34:29;;;;;;;23.55;12.50;;;;;;;8.15;66.85;101913.50;5031693;28;20045;-79
2021/12/14 10:37:16;;;;;;;32.63;16.92;;;;;;;8.17;66.94;101909.47;5031543;28;20052;-80
2021/12/14 10:42:51;;;;;;;25.80;15.18;;;;;;;8.81;63.46;101913.59;5031610;28;20507;-79
2021/12/14 10:45:23;;;;;;;23.60;15.00;;;;;;;9.38;62.15;101908.63;5031357;28;20045;-79
2021/12/14 10:47:52;;;;;;;53.65;23.80;;;;;;;9.60;62.18;101906.13;5030468;28;20053;-80
2021/12/14 10:50:26;;;;;;;24.23;14.82;;;;;;;9.73;59.03;101909.66;5021337;28;20045;-80
2021/12/14 10:52:55;;;;;;;21.52;12.57;;;;;;;9.03;62.01;101904.84;5035481;28;20052;-80
2021/12/14 10:55:35;;;;;;;21.15;13.13;;;;;;;8.84;63.06;101895.91;5035220;28;20397;-80
2021/12/14 10:58:05;;;;;;;21.75;11.77;;;;;;;8.55;63.18;101890.31;5035300;28;20045;-80
2021/12/14 11:00:43;;;;;;;16.98;11.27;;;;;;;9.31;61.17;101900.56;5034435;28;20045;-80
2021/12/14 11:03:17;;;;;;;19.63;11.93;;;;;;;9.64;59.42;101884.59;5034239;28;20045;-80
2021/12/14 11:05:51;;;;;;;21.00;12.43;;;;;;;9.69;59.77;101884.72;5035087;28;20052;-80
2021/12/14 11:11:18;;;;;;;19.63;12.50;;;;;;;8.93;62.79;101877.28;5018659;28;20049;-80
2021/12/14 11:13:53;;;;;;;20.88;12.25;;;;;;;9.33;63.51;101881.22;5035144;28;20056;-80
2021/12/14 11:19:38;;;;;;;23.90;13.30;;;;;;;8.75;63.33;101870.88;5034373;28;20052;-80
2021/12/14 11:22:16;;;;;;;22.80;12.75;;;;;;;8.74;63.58;101859.13;5033517;28;20037;-80
2021/12/14 11:24:48;;;;;;;42.55;21.13;;;;;;;9.24;63.27;101850.72;5032828;28;20045;-80
2021/12/14 11:27:31;;;;;;;34.60;18.63;;;;;;;9.69;61.90;101851.91;5049116;28;20523;-80
2021/12/14 11:30:15;;;;;;;46.92;23.13;;;;;;;9.81;61.48;101849.13;5033669;28;20045;-80
2021/12/14 11:32:45;;;;;;;29.17;15.93;;;;;;;9.74;61.53;101853.91;5015102;28;20042;-80
2021/12/14 11:35:23;;;;;;;25.63;15.55;;;;;;;9.95;60.51;101847.78;5018922;28;20057;-80
2021/12/14 11:37:51;;;;;;;27.38;14.05;;;;;;;9.71;62.02;101855.22;5018460;28;20042;-80
2021/12/14 11:40:21;;;;;;;24.00;15.02;;;;;;;9.31;62.54;101845.94;5014645;28;20064;-79
2021/12/14 11:42:49;;;;;;;21.83;14.40;;;;;;;9.47;61.83;101843.50;5016611;28;20390;-80
2021/12/14 11:45:20;;;;;;;24.67;15.23;;;;;;;9.71;62.47;101849.75;5021624;28;20058;-80
2021/12/14 11:47:58;;;;;;;25.48;15.02;;;;;;;9.35;63.19;101847.13;5019130;28;20046;-81
2021/12/14 11:50:33;;;;;;;28.45;16.05;;;;;;;9.16;63.91;101834.66;5015781;28;20046;-80
2021/12/14 11:53:03;;;;;;;23.75;15.55;;;;;;;9.62;63.75;101834.81;5024468;28;20042;-81
2021/12/14 11:55:44;;;;;;;27.77;17.90;;;;;;;10.03;62.31;101826.56;5023320;28;20697;-81
2021/12/14 11:58:31;;;;;;;24.98;16.20;;;;;;;9.89;61.38;101829.63;5039248;28;20046;-80
2021/12/14 12:01:16;;;;;;;26.13;16.85;;;;;;;9.97;62.75;101836.56;5021909;28;20053;-81
2021/12/14 12:03:58;;;;;;;26.77;16.67;;;;;;;10.13;62.14;101825.94;5027965;28;20048;-81
2021/12/14 12:06:46;;;;;;;27.23;16.30;;;;;;;10.10;60.96;101816.31;5029455;28;20065;-80
2021/12/14 12:09:32;;;;;;;28.08;17.17;;;;;;;9.90;61.72;101819.50;5028786;28;20045;-79